Time;durP1;ratioP1;P1;durP2;ratioP2;P2;SDS_P1;SDS_P2;PMS_P1;PMS_P2;Temp;Humidity;BMP_temperature;BMP_pressure;BME280_temperature;BME280_humidity;BME280_pressure;Samples;Min_cycle;Max_cycle;Signal;HPM_P1;HPM_P2
2022/03/19 00:00:38;;;;;;;;;9.00;7.00;;;;;8.46;43.73;102652.22;4935796;28;45254;-63
2022/03/19 00:03:04;;;;;;;;;16.25;12.25;;;;;8.44;43.82;102649.63;4952396;28;45499;-65
2022/03/19 00:05:29;;;;;;;;;23.75;18.00;;;;;8.46;44.14;102657.47;4938320;28;45538;-60
2022/03/19 00:07:55;;;;;;;;;6.00;3.00;;;;;8.43;44.33;102652.22;4938349;28;46583;-62
2022/03/19 00:10:22;;;;;;;;;15.25;13.50;;;;;8.43;44.18;102654.84;4939181;28;45437;-66
2022/03/19 00:12:49;;;;;;;;;9.75;9.75;;;;;8.43;44.02;102665.34;4941101;28;45375;-64
2022/03/19 00:15:16;;;;;;;;;7.00;7.00;;;;;8.40;43.90;102660.09;4940403;28;45319;-62
2022/03/19 00:17:41;;;;;;;;;9.25;8.25;;;;;8.39;44.05;102666.19;4939171;28;47389;-70
2022/03/19 00:20:07;;;;;;;;;14.25;11.50;;;;;8.35;43.59;102657.47;4938202;28;45263;-69
2022/03/19 00:22:34;;;;;;;;;12.25;7.75;;;;;8.33;43.43;102657.44;4968852;28;45559;-65
2022/03/19 00:25:00;;;;;;;;;9.75;7.00;;;;;8.32;43.78;102663.56;4939797;28;45592;-67
2022/03/19 00:27:25;;;;;;;;;7.50;6.00;;;;;8.25;44.00;102653.94;4938140;28;46923;-63
2022/03/19 00:29:51;;;;;;;;;6.00;6.00;;;;;8.30;43.65;102659.19;4937851;28;45263;-70
2022/03/19 00:32:17;;;;;;;;;5.50;4.75;;;;;8.29;43.66;102670.56;4937474;28;45148;-65
2022/03/19 00:34:42;;;;;;;;;5.25;4.00;;;;;8.25;43.45;102659.16;4937989;28;45285;-68
2022/03/19 00:37:07;;;;;;;;;9.50;6.00;;;;;8.21;43.87;102657.41;4938058;28;45912;-71
2022/03/19 00:39:33;;;;;;;;;7.00;7.00;;;;;8.22;43.75;102653.91;4939285;28;45335;-69
2022/03/19 00:41:58;;;;;;;;;8.50;5.00;;;;;8.17;43.24;102653.03;4940400;28;45391;-67
2022/03/19 00:44:23;;;;;;;;;6.00;6.00;;;;;8.17;43.64;102656.53;4938606;28;45306;-60
2022/03/19 00:46:49;;;;;;;;;10.75;9.50;;;;;8.16;44.09;102659.16;4937229;28;46049;-62
2022/03/19 00:49:15;;;;;;;;;7.75;7.75;;;;;8.04;44.34;102647.75;4937260;28;45658;-66
2022/03/19 00:51:41;;;;;;;;;9.50;8.50;;;;;8.12;43.79;102660.00;4937430;28;45346;-66
2022/03/19 00:54:07;;;;;;;;;7.00;6.00;;;;;8.08;43.36;102651.28;4938221;28;45393;-67
2022/03/19 00:56:33;;;;;;;;;7.00;5.75;;;;;8.06;43.69;102652.13;4941029;28;45266;-65
2022/03/19 00:58:59;;;;;;;;;6.00;4.00;;;;;8.03;44.13;102647.75;4942685;28;45318;-67
2022/03/19 01:01:24;;;;;;;;;6.50;4.75;;;;;8.01;43.76;102650.34;4943220;28;45492;-62
2022/03/19 01:03:49;;;;;;;;;10.75;8.25;;;;;7.99;43.88;102649.47;4941662;28;45293;-67
2022/03/19 01:06:15;;;;;;;;;6.00;5.00;;;;;7.95;43.99;102642.47;4943126;28;46162;-70
2022/03/19 01:08:40;;;;;;;;;5.75;5.75;;;;;7.89;43.94;102635.44;4974251;28;46135;-67
2022/03/19 01:11:07;;;;;;;;;7.50;7.50;;;;;7.91;43.98;102640.72;4942277;28;45260;-63
2022/03/19 01:13:32;;;;;;;;;4.50;3.75;;;;;7.90;43.59;102646.81;4941462;28;46136;-65
2022/03/19 01:15:58;;;;;;;;;8.00;5.50;;;;;7.85;44.36;102640.69;4940614;28;45432;-64
2022/03/19 01:18:24;;;;;;;;;6.00;6.00;;;;;7.82;44.63;102635.44;4940771;28;45397;-66
2022/03/19 01:20:49;;;;;;;;;7.00;6.25;;;;;7.76;43.75;102631.03;4941333;28;45448;-65
2022/03/19 01:23:15;;;;;;;;;6.25;6.00;;;;;7.80;44.56;102631.94;4941990;28;45261;-69
2022/03/19 01:25:40;;;;;;;;;6.25;6.00;;;;;7.77;44.11;102632.78;4943937;28;46134;-64
2022/03/19 01:28:06;;;;;;;;;7.00;5.75;;;;;7.73;44.23;102633.63;4944733;28;45488;-66
2022/03/19 01:30:31;;;;;;;;;8.00;6.00;;;;;7.72;43.95;102627.53;4957517;28;45330;-67
2022/03/19 01:32:56;;;;;;;;;6.00;5.50;;;;;7.69;44.05;102635.38;4941726;28;45657;-62
2022/03/19 01:35:22;;;;;;;;;6.25;5.75;;;;;7.65;44.41;102624.88;4944243;28;46928;-68
2022/03/19 01:37:50;;;;;;;;;7.00;6.00;;;;;7.64;45.18;102624.00;4941241;28;45352;-68
2022/03/19 01:40:17;;;;;;;;;7.25;6.00;;;;;7.62;43.72;102612.66;4941177;28;45414;-68
2022/03/19 01:42:46;;;;;;;;;5.00;5.00;;;;;7.51;44.36;102594.25;4940674;28;45270;-65
2022/03/19 01:45:16;;;;;;;;;3.75;3.75;;;;;7.51;44.57;102602.09;4940890;28;46408;-71
2022/03/19 01:47:42;;;;;;;;;6.00;5.00;;;;;7.48;44.56;102607.31;4940944;28;45360;-68
2022/03/19 01:50:09;;;;;;;;;7.75;5.50;;;;;7.51;44.67;102611.72;4941714;28;45227;-69
2022/03/19 01:52:35;;;;;;;;;4.75;4.00;;;;;7.50;44.35;102605.59;4943657;28;45584;-64
2022/03/19 01:55:01;;;;;;;;;6.75;5.75;;;;;7.50;44.86;102615.19;4942300;28;45356;-67
2022/03/19 01:57:37;;;;;;;;;9.25;8.50;;;;;7.47;44.56;102616.03;4943044;28;45412;-68
2022/03/19 02:00:07;;;;;;;;;6.75;5.75;;;;;7.45;45.26;102612.53;4941277;28;45227;-71
2022/03/19 02:02:34;;;;;;;;;7.75;7.00;;;;;7.42;45.15;102609.91;4955032;28;45643;-67
2022/03/19 02:05:03;;;;;;;;;5.25;5.25;;;;;7.40;45.14;102601.16;4954062;28;47329;-68
2022/03/19 02:07:29;;;;;;;;;7.00;5.25;;;;;7.35;45.06;102597.66;4938283;28;45268;-62
2022/03/19 02:09:57;;;;;;;;;6.75;5.75;;;;;7.34;45.56;102602.00;4954047;28;45405;-67
2022/03/19 02:12:23;;;;;;;;;4.25;4.25;;;;;7.32;45.43;102603.72;4941095;28;45575;-69
2022/03/19 02:14:48;;;;;;;;;5.00;5.00;;;;;7.30;44.90;102597.59;4941372;28;46171;-70
2022/03/19 02:17:13;;;;;;;;;5.50;5.50;;;;;7.25;45.04;102600.22;4941263;28;45318;-68
2022/03/19 02:20:06;;;;;;;;;10.00;7.50;;;;;7.25;45.30;102597.59;4941164;28;45252;-68
2022/03/19 02:22:31;;;;;;;;;7.50;4.50;;;;;7.20;45.51;102596.69;4940049;28;45485;-69
2022/03/19 02:27:43;;;;;;;;;13.25;8.00;;;;;7.16;45.25;102585.31;4941901;28;45346;-65
2022/03/19 02:30:12;;;;;;;;;7.25;7.25;;;;;7.16;45.31;102584.47;4939825;28;45392;-66
2022/03/19 02:32:43;;;;;;;;;19.25;17.75;;;;;7.12;45.68;102577.44;4940828;28;45659;-58
2022/03/19 02:35:10;;;;;;;;;6.25;6.00;;;;;7.11;45.79;102579.19;4972102;28;46573;-66
2022/03/19 02:37:47;;;;;;;;;10.00;5.00;;;;;7.10;45.21;102571.34;4943411;28;45437;-68
2022/03/19 02:40:14;;;;;;;;;6.25;5.00;;;;;7.07;46.09;102577.41;4942154;28;45711;-69
2022/03/19 02:42:39;;;;;;;;;8.50;6.00;;;;;7.03;45.63;102556.47;4941140;28;45385;-69
2022/03/19 02:45:12;;;;;;;;;6.25;6.25;;;;;7.04;45.80;102569.53;4939740;28;46288;-65
2022/03/19 02:50:24;;;;;;;;;10.25;7.50;;;;;6.94;45.82;102555.53;4939593;28;45255;-63
2022/03/19 02:52:50;;;;;;;;;7.75;5.75;;;;;6.95;45.55;102565.13;4954089;28;45384;-67
2022/03/19 02:55:15;;;;;;;;;7.00;6.25;;;;;6.95;46.79;102567.75;4939586;28;46284;-64
2022/03/19 02:57:40;;;;;;;;;6.00;6.00;;;;;6.93;46.15;102563.34;4939019;28;45370;-63
2022/03/19 03:00:07;;;;;;;;;7.00;6.75;;;;;6.91;46.86;102567.69;4939239;28;45323;-63
2022/03/19 03:02:32;;;;;;;;;11.75;8.00;;;;;6.85;45.75;102556.31;4940370;28;45343;-61
2022/03/19 03:04:57;;;;;;;;;9.00;8.25;;;;;6.86;46.65;102560.69;4938270;28;46409;-59
2022/03/19 03:07:23;;;;;;;;;9.00;7.00;;;;;6.77;46.25;102544.94;4938494;28;45348;-65
2022/03/19 03:09:48;;;;;;;;;8.25;7.00;;;;;6.84;46.76;102558.91;4940721;28;45358;-65
2022/03/19 03:12:14;;;;;;;;;9.75;6.75;;;;;6.80;46.57;102555.41;4945772;28;45401;-70
2022/03/19 03:14:39;;;;;;;;;7.75;7.00;;;;;6.81;47.05;102562.41;4941632;28;45877;-60
2022/03/19 03:17:06;;;;;;;;;7.50;7.50;;;;;6.80;47.04;102559.75;4937159;28;45468;-67
2022/03/19 03:19:32;;;;;;;;;7.25;7.00;;;;;6.75;47.02;102556.22;4938643;28;45476;-67
2022/03/19 03:21:58;;;;;;;;;7.75;6.00;;;;;6.67;46.82;102537.88;4938496;28;45561;-63
2022/03/19 03:24:24;;;;;;;;;8.50;7.75;;;;;6.71;46.52;102550.13;4937699;28;45287;-59
2022/03/19 03:26:50;;;;;;;;;11.25;8.00;;;;;6.71;46.85;102545.75;4940201;28;45164;-63
2022/03/19 03:29:15;;;;;;;;;7.25;6.50;;;;;6.70;47.44;102540.53;4938781;28;45331;-58
2022/03/19 03:31:41;;;;;;;;;8.25;8.00;;;;;6.67;47.46;102532.66;4938061;28;45370;-65
2022/03/19 03:34:07;;;;;;;;;9.00;7.50;;;;;6.66;47.88;102530.91;4970100;28;47190;-59
2022/03/19 03:36:34;;;;;;;;;10.75;9.50;;;;;6.62;47.90;102524.75;4939538;28;45394;-61
2022/03/19 03:38:59;;;;;;;;;9.00;7.75;;;;;6.63;47.46;102517.81;4938668;28;45407;-59
2022/03/19 03:41:25;;;;;;;;;10.50;9.00;;;;;6.58;47.79;102510.81;4937598;28;45467;-61
2022/03/19 03:43:50;;;;;;;;;11.00;8.75;;;;;6.57;47.89;102516.00;4951322;28;46241;-58
2022/03/19 03:46:16;;;;;;;;;8.50;8.00;;;;;6.56;47.83;102524.72;4938176;28;45298;-70
2022/03/19 03:48:41;;;;;;;;;7.50;7.25;;;;;6.54;47.44;102523.84;4954163;28;45283;-60
2022/03/19 03:51:10;;;;;;;;;9.50;9.50;;;;;6.51;48.18;102522.09;4939787;28;45286;-60
2022/03/19 03:53:37;;;;;;;;;7.50;7.50;;;;;6.50;48.59;102516.81;4938465;28;45398;-60
2022/03/19 03:56:03;;;;;;;;;11.25;9.25;;;;;6.47;48.95;102511.56;4937627;28;45505;-61
2022/03/19 03:58:29;;;;;;;;;12.50;10.00;;;;;6.42;48.49;102522.00;4937391;28;45414;-58
2022/03/19 04:00:55;;;;;;;;;10.00;9.25;;;;;6.47;48.07;102529.88;4936918;28;45316;-64
2022/03/19 04:03:21;;;;;;;;;8.00;8.00;;;;;6.45;48.39;102529.88;4937175;28;46531;-63
2022/03/19 04:05:46;;;;;;;;;9.00;6.75;;;;;6.43;48.40;102534.22;4939414;28;45294;-62
2022/03/19 04:08:12;;;;;;;;;14.25;10.75;;;;;6.40;49.00;102531.56;4939431;28;45362;-66
2022/03/19 04:10:37;;;;;;;;;15.00;11.00;;;;;6.16;48.89;102499.09;4937828;28;45268;-61
2022/03/19 04:13:03;;;;;;;;;11.00;9.75;;;;;6.39;48.99;102543.75;4938744;28;46220;-60
2022/03/19 04:15:29;;;;;;;;;16.50;11.25;;;;;6.32;49.58;102523.66;4938621;28;45292;-63
2022/03/19 04:17:55;;;;;;;;;11.50;11.00;;;;;6.34;49.31;102528.88;4938092;28;45314;-61
2022/03/19 04:20:22;;;;;;;;;12.75;9.75;;;;;6.33;50.10;102533.25;4937915;28;45310;-59
2022/03/19 04:22:48;;;;;;;;;15.50;12.50;;;;;6.29;49.43;102526.25;4935675;28;46322;-69
2022/03/19 04:25:20;;;;;;;;;13.00;11.50;;;;;6.24;50.40;102523.56;4937507;28;45340;-61
2022/03/19 04:27:49;;;;;;;;;16.50;11.50;;;;;6.23;50.00;102526.19;4937003;28;45409;-60
2022/03/19 04:30:16;;;;;;;;;14.00;11.00;;;;;6.23;50.47;102532.28;4939347;28;45506;-59
2022/03/19 04:32:47;;;;;;;;;16.25;14.75;;;;;6.23;50.21;102536.63;4940361;28;46192;-61
2022/03/19 04:38:01;;;;;;;;;17.75;16.75;;;;;6.18;51.03;102523.50;4942157;28;45422;-60
2022/03/19 04:40:26;;;;;;;;;21.75;17.00;;;;;6.14;50.82;102533.06;4941284;28;45412;-65
2022/03/19 04:42:52;;;;;;;;;16.50;16.50;;;;;6.08;51.59;102522.56;4941728;28;45442;-64
2022/03/19 04:45:18;;;;;;;;;21.25;16.00;;;;;6.13;52.12;102531.31;4942540;28;45241;-63
2022/03/19 04:47:44;;;;;;;;;17.25;17.25;;;;;6.08;51.72;102527.78;4944718;28;45294;-64
2022/03/19 04:50:09;;;;;;;;;26.25;19.00;;;;;6.05;51.95;102522.53;4949028;28;45371;-61
2022/03/19 04:52:35;;;;;;;;;21.25;15.00;;;;;6.07;52.54;102525.16;4940790;28;46150;-63
2022/03/19 04:55:01;;;;;;;;;20.00;19.00;;;;;6.05;52.26;102521.66;4940579;28;45187;-65
2022/03/19 04:57:30;;;;;;;;;17.75;13.25;;;;;6.04;52.02;102527.72;4941142;28;45260;-65
2022/03/19 04:59:57;;;;;;;;;25.00;20.50;;;;;6.02;52.31;102526.84;4942589;28;45445;-66
2022/03/19 05:02:24;;;;;;;;;19.25;16.75;;;;;5.98;53.15;102524.16;4939831;28;46313;-65
2022/03/19 05:04:53;;;;;;;;;23.75;20.75;;;;;5.98;52.99;102524.16;4940330;28;45320;-69
2022/03/19 05:07:19;;;;;;;;;25.00;19.00;;;;;5.95;52.84;102518.06;4940734;28;45349;-67
2022/03/19 05:12:35;;;;;;;;;30.00;20.75;;;;;5.90;53.64;102520.59;4941462;28;45751;-68
2022/03/19 05:15:00;;;;;;;;;26.50;21.00;;;;;5.90;53.24;102528.44;4941083;28;45189;-66
2022/03/19 05:17:26;;;;;;;;;23.50;18.75;;;;;5.89;53.39;102520.59;4940129;28;45272;-67
2022/03/19 05:19:52;;;;;;;;;20.50;20.00;;;;;5.84;53.95;102513.59;4971166;28;45286;-61
2022/03/19 05:22:17;;;;;;;;;31.50;21.50;;;;;5.81;53.73;102515.28;4940997;28;45919;-62
2022/03/19 05:24:43;;;;;;;;;29.50;24.75;;;;;5.85;54.54;102532.72;4941062;28;45371;-63
2022/03/19 05:27:09;;;;;;;;;31.00;22.50;;;;;5.82;54.00;102530.09;4939937;28;45298;-65
2022/03/19 05:29:34;;;;;;;;;27.75;23.25;;;;;5.79;54.66;102517.84;4940069;28;45558;-66
2022/03/19 05:32:00;;;;;;;;;26.50;21.00;;;;;5.79;53.82;102519.59;4939653;28;45431;-64
2022/03/19 05:34:31;;;;;;;;;27.00;22.50;;;;;5.79;55.09;102522.22;4940569;28;45314;-67
2022/03/19 05:37:04;;;;;;;;;27.50;22.00;;;;;5.68;55.23;102512.53;4942417;28;45332;-72
2022/03/19 05:39:30;;;;;;;;;28.50;24.50;;;;;5.77;54.91;102521.31;4941240;28;45574;-64
2022/03/19 05:41:55;;;;;;;;;33.75;24.25;;;;;5.75;55.41;102512.59;4940549;28;45449;-68
2022/03/19 05:44:21;;;;;;;;;27.25;23.25;;;;;5.71;55.20;102511.69;4939120;28;45434;-68
2022/03/19 05:46:47;;;;;;;;;26.50;23.00;;;;;5.73;55.25;102514.31;4943050;28;45208;-63
2022/03/19 05:49:13;;;;;;;;;24.75;19.25;;;;;5.69;55.99;102516.00;4941054;28;45357;-63
2022/03/19 05:51:39;;;;;;;;;30.75;27.75;;;;;5.66;56.37;102516.88;4938520;28;46217;-63
2022/03/19 05:54:04;;;;;;;;;29.50;25.75;;;;;5.67;56.19;102522.94;4940171;28;45406;-68
2022/03/19 05:56:31;;;;;;;;;25.25;21.75;;;;;5.65;56.16;102520.34;4939670;28;45270;-63
2022/03/19 05:58:57;;;;;;;;;30.75;26.75;;;;;5.63;56.50;102522.06;4940360;28;45465;-59
2022/03/19 06:01:26;;;;;;;;;39.00;30.00;;;;;5.58;56.80;102518.50;4939172;28;45560;-64
2022/03/19 06:03:52;;;;;;;;;32.25;27.75;;;;;5.64;56.62;102526.41;4940441;28;45199;-66
2022/03/19 06:06:17;;;;;;;;;34.25;31.00;;;;;5.62;56.43;102522.91;4941488;28;45488;-61
2022/03/19 06:08:43;;;;;;;;;38.25;32.00;;;;;5.62;57.05;102522.00;4941455;28;45399;-61
2022/03/19 06:11:08;;;;;;;;;30.75;24.25;;;;;5.62;57.37;102527.25;4940595;28;46291;-64
2022/03/19 06:13:33;;;;;;;;;33.75;28.25;;;;;5.53;57.11;102505.38;4939818;28;50991;-68
2022/03/19 06:15:59;;;;;;;;;35.25;30.50;;;;;5.64;57.20;102531.63;4939272;28;45424;-62
2022/03/19 06:18:24;;;;;;;;;34.50;29.75;;;;;5.62;57.57;102528.13;4939147;28;45510;-68
2022/03/19 06:20:50;;;;;;;;;33.25;30.00;;;;;5.63;57.39;102523.75;4938125;28;45409;-67
2022/03/19 06:23:15;;;;;;;;;42.25;32.25;;;;;5.64;57.34;102525.53;4953585;28;45545;-67
2022/03/19 06:25:40;;;;;;;;;43.00;32.50;;;;;5.63;57.89;102523.75;4946202;28;45263;-64
2022/03/19 06:28:06;;;;;;;;;36.50;32.25;;;;;5.64;57.75;102534.25;4938648;28;45439;-63
2022/03/19 06:30:37;;;;;;;;;41.00;32.00;;;;;5.65;57.37;102533.38;4938827;28;45520;-67
2022/03/19 06:33:03;;;;;;;;;38.00;32.75;;;;;5.58;57.43;102515.00;4938538;28;45410;-67
2022/03/19 06:38:13;;;;;;;;;48.50;37.25;;;;;5.68;58.59;102524.69;4937870;28;45338;-64
2022/03/19 06:40:38;;;;;;;;;48.50;37.75;;;;;5.69;59.07;102513.41;4937787;28;45451;-66
2022/03/19 06:43:04;;;;;;;;;47.50;36.75;;;;;5.72;58.50;102520.41;4937405;28;45253;-67
2022/03/19 06:45:29;;;;;;;;;42.25;35.00;;;;;5.73;59.09;102515.19;4937562;28;45390;-64
2022/03/19 06:47:54;;;;;;;;;50.50;37.00;;;;;5.76;58.54;102519.56;4938299;28;45479;-68
2022/03/19 06:50:20;;;;;;;;;46.25;37.25;;;;;5.77;59.06;102523.94;4940922;28;45344;-57
2022/03/19 06:52:45;;;;;;;;;50.75;38.00;;;;;5.79;59.13;102520.47;4939808;28;45520;-60
2022/03/19 06:55:10;;;;;;;;;49.50;42.25;;;;;5.80;58.89;102531.81;4958461;28;45821;-53
2022/03/19 06:57:36;;;;;;;;;48.50;35.75;;;;;5.81;59.60;102520.50;4950313;28;45163;-53
2022/03/19 07:00:02;;;;;;;;;49.75;38.25;;;;;5.82;59.18;102517.03;4937796;28;45443;-66
2022/03/19 07:02:28;;;;;;;;;46.75;38.75;;;;;5.91;58.73;102526.72;4953305;28;45301;-71
2022/03/19 07:04:54;;;;;;;;;48.75;38.50;;;;;5.97;58.68;102525.03;4937481;28;45329;-62
2022/03/19 07:07:19;;;;;;;;;51.50;40.50;;;;;6.02;59.17;102532.06;4937974;28;45396;-67
2022/03/19 07:09:45;;;;;;;;;49.25;38.75;;;;;6.06;58.46;102528.63;4936998;28;46048;-59
2022/03/19 07:12:11;;;;;;;;;52.75;41.75;;;;;6.11;59.09;102526.94;4937832;28;45458;-61
2022/03/19 07:14:37;;;;;;;;;43.25;34.50;;;;;6.15;58.68;102531.31;4939596;28;45243;-66
2022/03/19 07:17:03;;;;;;;;;52.00;43.00;;;;;6.19;59.47;102540.94;4949710;28;45694;-61
2022/03/19 07:19:29;;;;;;;;;51.50;42.75;;;;;6.21;58.76;102534.00;4939915;28;46305;-65
2022/03/19 07:21:54;;;;;;;;;54.00;41.75;;;;;6.25;59.14;102535.78;4952865;28;45369;-61
2022/03/19 07:24:19;;;;;;;;;57.25;44.25;;;;;6.31;58.92;102534.97;4937167;28;45433;-60
2022/03/19 07:26:45;;;;;;;;;62.00;44.00;;;;;6.34;58.55;102531.50;4937154;28;45371;-60
2022/03/19 07:29:13;;;;;;;;;54.00;43.25;;;;;6.43;59.10;102535.06;4937324;28;46221;-62
2022/03/19 07:31:39;;;;;;;;;56.00;44.00;;;;;6.44;59.03;102528.13;4937505;28;45268;-61
2022/03/19 07:34:04;;;;;;;;;59.00;43.25;;;;;6.53;58.41;102530.81;4938493;28;45455;-66
2022/03/19 07:36:31;;;;;;;;;57.00;42.00;;;;;6.57;59.09;102535.19;4938048;28;45240;-64
2022/03/19 07:38:56;;;;;;;;;52.25;42.75;;;;;6.62;59.09;102535.22;4937258;28;46032;-64
2022/03/19 07:44:06;;;;;;;;;60.00;46.25;;;;;6.72;59.12;102536.19;4938336;28;45212;-67
2022/03/19 07:46:31;;;;;;;;;62.00;47.50;;;;;6.75;59.25;102530.97;4936646;28;45247;-69
2022/03/19 07:48:56;;;;;;;;;60.00;46.25;;;;;6.79;58.45;102529.25;4936357;28;46792;-62
2022/03/19 07:51:22;;;;;;;;;59.00;46.25;;;;;6.83;58.50;102526.66;4936900;28;45323;-62
2022/03/19 07:53:48;;;;;;;;;61.00;46.50;;;;;6.90;58.82;102530.22;4936821;28;45448;-67
2022/03/19 07:56:13;;;;;;;;;58.75;44.75;;;;;6.93;58.51;102524.09;4935732;28;45373;-64
2022/03/19 07:58:40;;;;;;;;;65.00;48.25;;;;;6.93;58.08;102524.09;4938541;28;45347;-65
2022/03/19 08:01:05;;;;;;;;;60.25;46.25;;;;;7.03;59.38;102531.16;4939956;28;45262;-60
2022/03/19 08:03:31;;;;;;;;;56.75;46.00;;;;;7.12;58.61;102531.19;4939601;28;45268;-62
2022/03/19 08:05:56;;;;;;;;;62.00;46.75;;;;;7.21;58.01;102530.38;4944719;28;45586;-67
2022/03/19 08:08:21;;;;;;;;;63.75;49.00;;;;;7.26;58.34;102530.41;4944974;28;45986;-61
2022/03/19 08:10:47;;;;;;;;;58.25;44.50;;;;;7.34;58.44;102526.06;4948044;28;45227;-67
2022/03/19 08:13:13;;;;;;;;;50.75;41.50;;;;;7.43;57.48;102525.25;4942509;28;45306;-71
2022/03/19 08:15:40;;;;;;;;;64.50;50.25;;;;;7.47;58.42;102518.31;4941202;28;45296;-68
2022/03/19 08:18:06;;;;;;;;;62.00;49.00;;;;;7.59;57.70;102521.81;4940667;28;46174;-65
2022/03/19 08:20:32;;;;;;;;;62.50;46.50;;;;;7.67;57.91;102523.59;4939577;28;45199;-65
2022/03/19 08:22:57;;;;;;;;;64.50;50.75;;;;;7.76;57.82;102518.38;4952193;28;45223;-72
2022/03/19 08:25:23;;;;;;;;;60.75;48.75;;;;;7.84;57.51;102518.41;4948124;28;45401;-73
2022/03/19 08:27:50;;;;;;;;;64.75;49.50;;;;;7.94;57.33;102512.31;4939716;28;45333;-70
2022/03/19 08:30:16;;;;;;;;;68.75;52.75;;;;;8.02;57.17;102515.81;4945962;28;45420;-77
2022/03/19 08:32:41;;;;;;;;;65.00;47.25;;;;;8.11;57.32;102512.34;4948399;28;45378;-74
2022/03/19 08:35:07;;;;;;;;;65.50;50.75;;;;;8.06;56.53;102484.38;4947898;28;45398;-70
2022/03/19 08:37:33;;;;;;;;;66.25;52.00;;;;;8.31;57.04;102501.84;4948529;28;45437;-75
2022/03/19 08:40:17;;;;;;;;;66.75;48.75;;;;;8.42;56.23;102508.84;4944887;28;45270;-71
2022/03/19 08:42:51;;;;;;;;;65.25;48.50;;;;;8.51;56.15;102502.78;4959695;28;45526;-75
2022/03/19 08:45:17;;;;;;;;;60.50;48.25;;;;;8.55;56.06;102505.41;4962693;28;45494;-75
2022/03/19 08:47:42;;;;;;;;;64.50;51.00;;;;;8.64;55.87;102509.75;4960759;28;45987;-74
2022/03/19 08:50:08;;;;;;;;;62.50;49.50;;;;;8.70;56.11;102495.78;4960599;28;45444;-75
2022/03/19 08:52:34;;;;;;;;;68.75;52.25;;;;;8.71;55.48;102489.66;4959943;28;45267;-72
2022/03/19 08:55:01;;;;;;;;;72.75;52.25;;;;;8.84;55.80;102496.63;4973917;28;45607;-71
2022/03/19 08:57:27;;;;;;;;;71.00;52.25;;;;;8.96;55.55;102494.84;4958091;28;47094;-74
2022/03/19 08:59:52;;;;;;;;;63.75;50.25;;;;;9.00;55.07;102486.06;4958448;28;45514;-74
2022/03/19 09:02:18;;;;;;;;;64.75;50.00;;;;;9.13;55.27;102487.78;4958581;28;45697;-73
2022/03/19 09:04:43;;;;;;;;;65.50;51.75;;;;;9.23;54.85;102499.13;4958534;28;45289;-74
2022/03/19 09:07:09;;;;;;;;;67.50;51.50;;;;;9.34;54.96;102496.44;4956851;28;46114;-68
2022/03/19 09:09:35;;;;;;;;;69.00;52.00;;;;;9.50;54.73;102492.00;4958020;28;45254;-74
2022/03/19 09:12:01;;;;;;;;;67.00;50.25;;;;;9.63;53.93;102496.31;4958599;28;46151;-66
2022/03/19 09:14:27;;;;;;;;;66.00;52.25;;;;;9.76;53.70;102491.00;4958334;28;45566;-62
2022/03/19 09:16:52;;;;;;;;;67.50;51.75;;;;;9.81;53.01;102480.47;4960439;28;46409;-72
2022/03/19 09:19:18;;;;;;;;;64.75;51.50;;;;;10.01;52.84;102496.06;4957807;28;45345;-73
2022/03/19 09:21:43;;;;;;;;;64.00;49.50;;;;;10.04;52.62;102468.03;4958779;28;45150;-71
2022/03/19 09:24:10;;;;;;;;;63.25;50.50;;;;;10.27;52.11;102484.50;4959427;28;45585;-71
2022/03/19 09:26:35;;;;;;;;;65.00;49.00;;;;;10.37;50.69;102481.78;4957966;28;46678;-73
2022/03/19 09:29:01;;;;;;;;;61.00;45.75;;;;;10.50;51.55;102498.38;4957938;28;45208;-71
2022/03/19 09:31:27;;;;;;;;;57.50;41.00;;;;;10.54;50.62;102483.41;4958628;28;45312;-68
2022/03/19 09:33:53;;;;;;;;;68.00;53.00;;;;;10.56;50.39;102473.75;4958748;28;45583;-69
2022/03/19 09:36:18;;;;;;;;;61.75;44.25;;;;;10.68;49.64;102479.81;4960229;28;45464;-70
2022/03/19 09:38:44;;;;;;;;;92.00;85.67;;;;;10.77;50.04;102483.19;4958934;28;45386;-73
2022/03/19 09:41:09;;;;;;;;;82.00;69.00;;;;;10.87;49.65;102476.06;4959441;28;45358;-66
2022/03/19 09:43:35;;;;;;;;;67.50;50.50;;;;;10.98;49.41;102477.72;4960016;28;45287;-69
2022/03/19 09:46:04;;;;;;;;;66.50;50.25;;;;;11.07;49.09;102481.09;4958944;28;46444;-70
2022/03/19 09:48:30;;;;;;;;;72.25;55.25;;;;;11.12;48.46;102467.88;4958967;28;45492;-71
2022/03/19 09:50:57;;;;;;;;;63.00;51.50;;;;;11.19;47.85;102474.81;4958239;28;45349;-74
2022/03/19 09:53:25;;;;;;;;;62.75;50.00;;;;;11.29;48.39;102472.06;4958700;28;45530;-72
2022/03/19 09:55:53;;;;;;;;;67.25;49.50;;;;;11.26;47.94;102451.91;4957752;28;46376;-69
2022/03/19 09:58:19;;;;;;;;;72.00;53.00;;;;;11.40;48.10;102460.50;4959128;28;45598;-72
2022/03/19 10:00:45;;;;;;;;;60.00;47.00;;;;;11.47;47.45;102453.38;4959927;28;45296;-73
2022/03/19 10:03:12;;;;;;;;;67.50;51.75;;;;;11.54;46.85;102457.66;4960020;28;45325;-69
2022/03/19 10:08:36;;;;;;;;;57.75;47.00;;;;;11.68;45.46;102440.81;4964509;28;45349;-70
2022/03/19 10:11:07;;;;;;;;;59.50;48.25;;;;;11.34;45.39;102385.94;4957898;28;45485;-73
2022/03/19 10:13:35;;;;;;;;;62.25;48.50;;;;;11.82;46.22;102441.47;4958419;28;45208;-73
2022/03/19 10:16:01;;;;;;;;;62.00;47.75;;;;;11.95;45.76;102442.13;4958670;28;45298;-72
2022/03/19 10:18:30;;;;;;;;;59.75;47.00;;;;;12.03;45.27;102439.41;4957628;28;45304;-66
2022/03/19 10:21:00;;;;;;;;;58.75;44.25;;;;;12.08;44.70;102437.56;4958473;28;45222;-70
2022/03/19 10:23:39;;;;;;;;;62.50;46.75;;;;;12.17;45.23;102436.53;4958127;28;45299;-74
2022/03/19 10:26:04;;;;;;;;;66.25;47.75;;;;;12.25;44.30;102433.75;4957603;28;46185;-69
2022/03/19 10:28:32;;;;;;;;;56.75;43.00;;;;;12.26;44.19;102417.91;4959293;28;45685;-73
2022/03/19 10:30:58;;;;;;;;;64.75;48.50;;;;;12.42;44.14;102413.22;4958207;28;45334;-73
2022/03/19 10:33:27;;;;;;;;;59.00;44.50;;;;;12.56;43.45;102430.56;4957674;28;45690;-70
2022/03/19 10:36:05;;;;;;;;;59.75;47.00;;;;;12.62;42.78;102419.03;4956714;28;46064;-72
2022/03/19 10:38:42;;;;;;;;;60.25;45.25;;;;;12.67;42.99;102420.66;4956725;28;45499;-64
2022/03/19 10:41:08;;;;;;;;;56.75;43.50;;;;;12.76;42.43;102422.25;4956912;28;45390;-75
2022/03/19 10:43:34;;;;;;;;;57.00;45.25;;;;;12.78;41.62;102420.47;4958148;28;45488;-74
2022/03/19 10:46:02;;;;;;;;;59.50;45.75;;;;;12.83;42.36;102415.09;4959615;28;47064;-72
2022/03/19 10:48:29;;;;;;;;;57.50;45.25;;;;;12.94;42.14;102412.22;4958417;28;45327;-74
2022/03/19 10:50:55;;;;;;;;;61.75;46.25;;;;;13.04;42.15;102402.34;4958793;28;45299;-71
2022/03/19 10:53:23;;;;;;;;;59.75;46.75;;;;;13.13;41.28;102405.63;4957236;28;45377;-74
2022/03/19 10:55:48;;;;;;;;;56.00;43.75;;;;;13.24;41.37;102400.13;4956883;28;46432;-70
2022/03/19 10:58:14;;;;;;;;;62.00;46.25;;;;;13.30;41.05;102407.06;4971400;28;45339;-72
2022/03/19 11:00:41;;;;;;;;;53.50;43.00;;;;;13.39;41.47;102393.63;4956726;28;45338;-74
2022/03/19 11:03:18;;;;;;;;;55.50;42.25;;;;;13.53;40.01;102401.25;4956769;28;45528;-72
2022/03/19 11:05:45;;;;;;;;;55.25;41.75;;;;;13.63;40.75;102398.41;4956141;28;46110;-72
2022/03/19 11:08:12;;;;;;;;;61.50;46.25;;;;;13.74;40.63;102393.72;4958703;28;45355;-73
2022/03/19 11:10:38;;;;;;;;;56.75;45.75;;;;;13.86;39.77;102390.78;4957105;28;45371;-72
2022/03/19 11:13:07;;;;;;;;;58.00;44.50;;;;;13.97;40.24;102389.66;4957218;28;45274;-73
2022/03/19 11:15:34;;;;;;;;;58.00;46.50;;;;;14.06;38.20;102388.53;4957142;28;45764;-72
2022/03/19 11:18:09;;;;;;;;;56.25;42.50;;;;;14.03;39.19;102378.91;4957251;28;45223;-70
2022/03/19 11:20:34;;;;;;;;;57.25;43.00;;;;;14.08;38.46;102382.31;4956631;28;45338;-72
2022/03/19 11:23:04;;;;;;;;;60.50;45.25;;;;;14.12;37.86;102375.13;4957221;28;45158;-70
2022/03/19 11:25:43;;;;;;;;;57.00;45.25;;;;;14.14;37.79;102376.84;4957008;28;45450;-60
2022/03/19 11:28:11;;;;;;;;;54.50;44.50;;;;;14.19;37.57;102367.91;4955886;28;45236;-72
2022/03/19 11:30:40;;;;;;;;;59.50;45.75;;;;;14.22;38.57;102367.84;4956632;28;45199;-73
2022/03/19 11:33:16;;;;;;;;;54.50;44.75;;;;;14.34;38.15;102371.94;4958185;28;45376;-69
2022/03/19 11:36:01;;;;;;;;;53.75;41.50;;;;;14.49;38.32;102362.69;4957060;28;45456;-70
2022/03/19 11:38:29;;;;;;;;;62.25;47.50;;;;;14.58;37.25;102368.59;4971628;28;45337;-71